Time;durP1;ratioP1;P1;durP2;ratioP2;P2;SDS_P1;SDS_P2;PMS_P1;PMS_P2;Temp;Humidity;BMP_temperature;BMP_pressure;BME280_temperature;BME280_humidity;BME280_pressure;Samples;Min_cycle;Max_cycle;Signal;HPM_P1;HPM_P2
2022/03/07 00:01:59;;;;;;;5.50;5.10;;;7.00;1.00;;;;;;5078873;28;20528;-78
2022/03/07 00:04:28;;;;;;;5.63;5.13;;;7.00;1.00;;;;;;5074275;28;20450;-75
2022/03/07 00:06:58;;;;;;;7.33;5.80;;;7.00;1.00;;;;;;5078580;28;20832;-79
2022/03/07 00:09:26;;;;;;;5.30;4.80;;;6.90;1.00;;;;;;5078876;28;20503;-75
2022/03/07 00:11:54;;;;;;;5.97;5.37;;;6.90;1.00;;;;;;5078684;28;20465;-74
2022/03/07 00:14:23;;;;;;;7.68;6.18;;;6.90;1.00;;;;;;5072572;28;20459;-76
2022/03/07 00:16:51;;;;;;;6.47;5.43;;;6.90;1.00;;;;;;5075157;28;20221;-75
2022/03/07 00:19:20;;;;;;;7.00;5.10;;;6.80;1.00;;;;;;5078623;28;20507;-76
2022/03/07 00:21:49;;;;;;;5.87;4.90;;;6.80;1.00;;;;;;5075263;28;20442;-74
2022/03/07 00:24:17;;;;;;;6.80;6.13;;;6.90;1.00;;;;;;5077833;28;20458;-75
2022/03/07 00:26:45;;;;;;;6.47;5.20;;;6.90;1.00;;;;;;5081433;28;20485;-75
2022/03/07 00:29:13;;;;;;;6.43;5.80;;;7.00;1.00;;;;;;5079634;28;20461;-75
2022/03/07 00:31:41;;;;;;;8.13;6.03;;;6.90;1.00;;;;;;5076804;28;20742;-76
2022/03/07 00:34:09;;;;;;;6.30;5.70;;;6.90;1.00;;;;;;5076099;28;20459;-77
2022/03/07 00:36:39;;;;;;;6.67;5.20;;;6.90;1.00;;;;;;5087642;28;20486;-75
2022/03/07 00:39:07;;;;;;;8.23;5.23;;;6.80;1.00;;;;;;5074104;28;20468;-75
2022/03/07 00:41:35;;;;;;;5.67;4.63;;;6.80;1.00;;;;;;5092566;28;20450;-75
2022/03/07 00:44:03;;;;;;;6.30;5.30;;;6.80;1.00;;;;;;5075501;28;20459;-76
2022/03/07 00:46:32;;;;;;;5.50;5.00;;;6.80;1.00;;;;;;5075686;28;20526;-76
2022/03/07 00:49:00;;;;;;;5.70;5.07;;;7.10;1.00;;;;;;5082239;28;20869;-77
2022/03/07 00:51:28;;;;;;;7.23;5.00;;;6.80;1.00;;;;;;5090466;28;21011;-76
2022/03/07 00:53:58;;;;;;;5.07;4.67;;;6.80;1.00;;;;;;5086194;28;20454;-77
2022/03/07 00:56:26;;;;;;;7.30;4.90;;;6.90;1.00;;;;;;5077613;28;20558;-75
2022/03/07 00:58:54;;;;;;;9.47;5.50;;;6.80;1.00;;;;;;5074996;28;20466;-78
2022/03/07 01:01:23;;;;;;;5.03;4.63;;;6.80;1.00;;;;;;5083600;28;20449;-76
2022/03/07 01:03:51;;;;;;;5.83;5.23;;;6.70;1.00;;;;;;5079913;28;20450;-77
2022/03/07 01:06:19;;;;;;;8.80;5.67;;;6.80;1.00;;;;;;5077606;28;20477;-76
2022/03/07 01:08:47;;;;;;;5.83;4.97;;;6.70;1.00;;;;;;5078291;28;20442;-77
2022/03/07 01:11:18;;;;;;;6.07;5.60;;;6.70;1.00;;;;;;5076239;28;21323;-75
2022/03/07 01:13:46;;;;;;;4.90;4.50;;;6.70;1.00;;;;;;5079274;28;20437;-77
2022/03/07 01:16:17;;;;;;;5.80;5.20;;;6.60;1.00;;;;;;5080870;28;20471;-76
2022/03/07 01:18:45;;;;;;;5.97;4.67;;;6.60;1.00;;;;;;5077383;28;20458;-76
2022/03/07 01:21:14;;;;;;;5.23;4.73;;;6.60;1.00;;;;;;5078447;28;20447;-77
2022/03/07 01:23:42;;;;;;;6.60;4.30;;;6.70;1.00;;;;;;5076432;28;20462;-75
2022/03/07 01:26:11;;;;;;;4.43;4.03;;;6.60;1.00;;;;;;5077970;28;20466;-75
2022/03/07 01:28:40;;;;;;;8.20;5.07;;;6.70;1.00;;;;;;5077701;28;20457;-74
2022/03/07 01:31:08;;;;;;;7.40;4.77;;;6.70;1.00;;;;;;5078101;28;20473;-75
2022/03/07 01:33:37;;;;;;;6.00;4.50;;;6.50;1.00;;;;;;5075386;28;20466;-76
2022/03/07 01:36:05;;;;;;;6.40;5.13;;;6.50;1.00;;;;;;5080362;28;20529;-77
2022/03/07 01:38:34;;;;;;;5.13;4.27;;;6.50;1.00;;;;;;5078251;28;20459;-75
2022/03/07 01:41:02;;;;;;;4.73;4.33;;;6.40;1.00;;;;;;5080920;28;20942;-75
2022/03/07 01:43:30;;;;;;;5.20;4.73;;;6.40;1.00;;;;;;5081025;28;20451;-74
2022/03/07 01:46:00;;;;;;;4.77;4.37;;;6.30;1.00;;;;;;5074733;28;20471;-75
2022/03/07 01:48:28;;;;;;;5.80;4.90;;;6.30;1.00;;;;;;5090598;28;20456;-75
2022/03/07 01:50:56;;;;;;;5.40;4.07;;;6.30;1.00;;;;;;5076471;28;20460;-76
2022/03/07 01:53:25;;;;;;;4.83;4.20;;;6.40;1.00;;;;;;5077229;28;22581;-75
2022/03/07 01:55:55;;;;;;;9.00;4.53;;;6.30;1.00;;;;;;5074648;28;20483;-76
2022/03/07 01:58:23;;;;;;;4.60;4.20;;;6.30;1.00;;;;;;5073683;28;20463;-76
2022/03/07 02:00:51;;;;;;;5.90;3.93;;;6.40;1.00;;;;;;5074970;28;21088;-78
2022/03/07 02:03:21;;;;;;;4.70;4.23;;;6.40;1.00;;;;;;5081387;28;20449;-76
2022/03/07 02:05:50;;;;;;;5.70;4.37;;;6.40;1.00;;;;;;5081403;28;20501;-79
2022/03/07 02:08:18;;;;;;;4.27;3.87;;;6.40;1.00;;;;;;5075155;28;20450;-75
2022/03/07 02:10:46;;;;;;;6.83;4.27;;;6.30;1.00;;;;;;5073975;28;20482;-77
2022/03/07 02:13:16;;;;;;;4.00;3.70;;;6.20;1.00;;;;;;5079007;28;20458;-76
2022/03/07 02:15:44;;;;;;;5.83;4.27;;;6.20;1.00;;;;;;5075284;28;20945;-77
2022/03/07 02:18:13;;;;;;;3.83;3.53;;;6.20;1.00;;;;;;5077576;28;20463;-76
2022/03/07 02:20:42;;;;;;;4.27;3.87;;;6.20;1.00;;;;;;5085119;28;20450;-76
2022/03/07 02:23:12;;;;;;;5.20;4.40;;;6.10;1.00;;;;;;5076137;28;20454;-77
2022/03/07 02:25:40;;;;;;;4.87;4.03;;;6.10;1.00;;;;;;5077429;28;20555;-76
2022/03/07 02:28:08;;;;;;;5.30;4.13;;;6.10;1.00;;;;;;5081623;28;20462;-77
2022/03/07 02:30:38;;;;;;;5.67;3.30;;;6.00;1.00;;;;;;5078277;28;20811;-75
2022/03/07 02:33:10;;;;;;;4.17;3.77;;;6.10;1.00;;;;;;5087934;28;20448;-77
2022/03/07 02:35:40;;;;;;;3.87;3.50;;;6.30;1.00;;;;;;5074926;28;20553;-77
2022/03/07 02:38:16;;;;;;;6.60;4.53;;;6.30;1.00;;;;;;5083978;28;20988;-75
2022/03/07 02:40:46;;;;;;;4.70;4.27;;;6.00;1.00;;;;;;5085800;28;20445;-76
2022/03/07 02:43:18;;;;;;;4.03;3.73;;;5.90;1.00;;;;;;5089758;28;20496;-78
2022/03/07 02:45:47;;;;;;;4.67;4.10;;;5.90;1.00;;;;;;5076592;28;20916;-76
2022/03/07 02:48:15;;;;;;;6.50;4.10;;;5.90;1.00;;;;;;5076453;28;20516;-75
2022/03/07 02:50:45;;;;;;;4.17;3.40;;;5.80;1.00;;;;;;5080620;28;20945;-75
2022/03/07 02:53:13;;;;;;;5.10;4.50;;;5.90;1.00;;;;;;5089159;28;20511;-77
2022/03/07 02:55:42;;;;;;;3.63;3.30;;;5.90;1.00;;;;;;5079424;28;20949;-75
2022/03/07 02:58:11;;;;;;;5.97;3.57;;;5.90;1.00;;;;;;5078842;28;20446;-75
2022/03/07 03:00:40;;;;;;;4.30;4.00;;;5.90;1.00;;;;;;5085875;28;20827;-75
2022/03/07 03:03:08;;;;;;;5.70;4.33;;;6.00;1.00;;;;;;5084191;28;20980;-75
2022/03/07 03:05:36;;;;;;;4.97;3.90;;;5.90;1.00;;;;;;5079522;28;20462;-77
2022/03/07 03:08:05;;;;;;;3.50;3.20;;;5.90;1.00;;;;;;5086554;28;21023;-75
2022/03/07 03:10:33;;;;;;;4.80;3.60;;;5.80;1.00;;;;;;5081730;28;20481;-76
2022/03/07 03:13:03;;;;;;;4.07;3.72;;;5.70;1.00;;;;;;5076829;28;20486;-76
2022/03/07 03:15:31;;;;;;;6.73;3.70;;;5.60;1.00;;;;;;5074324;28;20573;-78
2022/03/07 03:17:59;;;;;;;5.40;3.83;;;5.60;1.00;;;;;;5073534;28;20811;-78
2022/03/07 03:20:28;;;;;;;5.27;4.13;;;5.60;1.00;;;;;;5077030;28;20453;-76
2022/03/07 03:22:56;;;;;;;3.25;2.95;;;5.50;1.00;;;;;;5079220;28;20439;-77
2022/03/07 03:25:24;;;;;;;4.37;3.83;;;5.50;1.00;;;;;;5085437;28;20204;-77
2022/03/07 03:27:52;;;;;;;3.53;3.23;;;5.60;1.00;;;;;;5091495;28;20452;-76
2022/03/07 03:30:22;;;;;;;6.30;4.13;;;5.50;1.00;;;;;;5087558;28;20477;-76
2022/03/07 03:32:50;;;;;;;3.97;3.55;;;5.30;1.00;;;;;;5088221;28;21007;-76
2022/03/07 03:35:18;;;;;;;5.60;4.35;;;5.30;1.00;;;;;;5081101;28;20187;-76
2022/03/07 03:37:47;;;;;;;7.03;4.23;;;5.30;1.00;;;;;;5083091;28;20658;-76
2022/03/07 03:40:15;;;;;;;4.43;3.53;;;5.30;1.00;;;;;;5072531;28;20541;-76
2022/03/07 03:42:44;;;;;;;3.80;3.50;;;5.50;1.00;;;;;;5074123;28;20187;-77
2022/03/07 03:45:13;;;;;;;3.47;3.13;;;5.40;1.00;;;;;;5079334;28;20195;-76
2022/03/07 03:47:44;;;;;;;5.38;4.03;;;5.50;1.00;;;;;;5081054;28;20239;-76
2022/03/07 03:50:14;;;;;;;5.20;4.80;;;5.20;1.00;;;;;;5083013;28;20800;-76
2022/03/07 03:52:43;;;;;;;4.32;3.80;;;5.20;1.00;;;;;;5076618;28;20479;-76
2022/03/07 03:55:15;;;;;;;7.83;4.83;;;5.40;1.00;;;;;;5079007;28;20241;-77
2022/03/07 03:57:45;;;;;;;5.72;4.90;;;5.10;1.00;;;;;;5077794;28;20469;-77
2022/03/07 04:00:17;;;;;;;5.33;4.53;;;5.10;1.00;;;;;;5078016;28;20196;-76
2022/03/07 04:02:47;;;;;;;4.23;3.50;;;5.10;1.00;;;;;;5081289;28;20529;-76
2022/03/07 04:05:16;;;;;;;5.23;3.77;;;5.20;1.00;;;;;;5083253;28;20457;-77
2022/03/07 04:07:45;;;;;;;6.97;4.03;;;5.10;1.00;;;;;;5075696;28;21068;-77
2022/03/07 04:10:14;;;;;;;5.60;4.93;;;5.00;1.00;;;;;;5078685;28;20438;-76
2022/03/07 04:12:43;;;;;;;4.07;3.65;;;5.20;1.00;;;;;;5088992;28;20540;-76
2022/03/07 04:15:12;;;;;;;5.40;4.30;;;5.20;1.00;;;;;;5079792;28;20203;-77
2022/03/07 04:17:41;;;;;;;4.77;4.17;;;5.00;1.00;;;;;;5076224;28;20478;-77
2022/03/07 04:20:13;;;;;;;5.47;4.72;;;5.00;1.00;;;;;;5078644;28;20477;-77
2022/03/07 04:22:42;;;;;;;4.60;3.63;;;5.10;1.00;;;;;;5079781;28;20202;-77
2022/03/07 04:25:10;;;;;;;4.68;4.28;;;5.00;1.00;;;;;;5076691;28;20465;-79
2022/03/07 04:27:38;;;;;;;5.03;4.53;;;5.00;1.00;;;;;;5074941;28;20641;-77
2022/03/07 04:30:08;;;;;;;6.85;4.63;;;5.40;1.00;;;;;;5088184;28;20203;-76
2022/03/07 04:32:38;;;;;;;6.03;4.75;;;5.00;1.00;;;;;;5077592;28;20630;-78
2022/03/07 04:35:08;;;;;;;8.20;4.87;;;5.00;1.00;;;;;;5086533;28;20275;-75
2022/03/07 04:37:40;;;;;;;5.05;4.53;;;5.00;1.00;;;;;;5079536;28;20466;-76
2022/03/07 04:40:10;;;;;;;5.82;4.57;;;5.20;1.00;;;;;;5085716;28;20211;-75
2022/03/07 04:42:38;;;;;;;5.80;5.30;;;5.00;1.00;;;;;;5085671;28;20242;-75
2022/03/07 04:45:07;;;;;;;6.45;4.55;;;5.20;1.00;;;;;;5079983;28;20202;-76
2022/03/07 04:47:35;;;;;;;4.38;3.92;;;5.00;1.00;;;;;;5077827;28;20199;-77
2022/03/07 04:50:04;;;;;;;7.47;5.10;;;5.00;1.00;;;;;;5078762;28;20693;-76
2022/03/07 04:52:33;;;;;;;6.30;3.72;;;5.00;1.00;;;;;;5078982;28;20474;-76
2022/03/07 04:55:02;;;;;;;6.75;4.65;;;4.90;1.00;;;;;;5080035;28;20257;-75
2022/03/07 04:57:30;;;;;;;5.30;4.78;;;4.90;1.00;;;;;;5082743;28;20235;-76
2022/03/07 04:59:59;;;;;;;5.07;4.57;;;4.90;1.00;;;;;;5077449;28;20194;-75
2022/03/07 05:02:27;;;;;;;4.50;4.10;;;4.80;1.00;;;;;;5074450;28;20188;-77
2022/03/07 05:04:55;;;;;;;5.40;4.50;;;4.70;1.00;;;;;;5077541;28;20202;-77
2022/03/07 05:07:24;;;;;;;6.10;4.70;;;4.70;1.00;;;;;;5085619;28;20232;-74
2022/03/07 05:09:52;;;;;;;7.28;5.50;;;4.70;1.00;;;;;;5083184;28;20690;-75
2022/03/07 05:12:21;;;;;;;5.38;4.85;;;4.70;1.00;;;;;;5087310;28;20576;-76
2022/03/07 05:14:50;;;;;;;5.47;4.97;;;4.70;1.00;;;;;;5080748;28;20197;-75
2022/03/07 05:17:18;;;;;;;5.60;4.30;;;4.80;1.00;;;;;;5075534;28;20215;-76
2022/03/07 05:19:47;;;;;;;6.53;5.43;;;5.10;1.00;;;;;;5073768;28;20443;-77
2022/03/07 05:22:15;;;;;;;7.67;6.00;;;4.90;1.00;;;;;;5075310;28;20207;-75
2022/03/07 05:24:43;;;;;;;6.07;4.47;;;4.90;1.00;;;;;;5074845;28;20445;-75
2022/03/07 05:27:12;;;;;;;5.73;4.70;;;4.90;1.00;;;;;;5086339;28;20481;-76
2022/03/07 05:29:41;;;;;;;5.67;4.80;;;5.10;1.00;;;;;;5081333;28;20538;-75
2022/03/07 05:32:09;;;;;;;6.90;4.60;;;4.90;1.00;;;;;;5079997;28;20517;-77
2022/03/07 05:34:37;;;;;;;7.40;5.30;;;4.80;1.00;;;;;;5076074;28;20466;-75
2022/03/07 05:37:06;;;;;;;5.23;4.73;;;4.80;1.00;;;;;;5073784;28;20558;-74
2022/03/07 05:39:34;;;;;;;7.05;4.68;;;4.80;1.00;;;;;;5083073;28;20495;-75
2022/03/07 05:42:03;;;;;;;9.23;6.07;;;5.10;1.00;;;;;;5079131;28;20684;-75
2022/03/07 05:44:31;;;;;;;7.10;4.73;;;4.80;1.00;;;;;;5080548;28;20446;-75
2022/03/07 05:47:01;;;;;;;7.32;5.40;;;4.80;1.00;;;;;;5075244;28;20550;-75
2022/03/07 05:49:29;;;;;;;8.90;5.70;;;4.70;1.00;;;;;;5074976;28;20308;-75
2022/03/07 05:51:57;;;;;;;7.00;5.77;;;4.60;1.00;;;;;;5075420;28;21079;-76
2022/03/07 05:54:26;;;;;;;7.33;5.60;;;4.70;1.00;;;;;;5082625;28;20485;-76
2022/03/07 05:56:54;;;;;;;9.00;6.57;;;4.70;1.00;;;;;;5081592;28;21292;-75
2022/03/07 05:59:22;;;;;;;10.23;5.93;;;4.60;1.00;;;;;;5081431;28;20464;-75
2022/03/07 06:01:50;;;;;;;9.17;6.80;;;4.60;1.00;;;;;;5074826;28;20207;-75
2022/03/07 06:04:20;;;;;;;6.07;4.87;;;4.60;1.00;;;;;;5078970;28;20845;-75
2022/03/07 06:06:48;;;;;;;5.47;4.97;;;4.60;1.00;;;;;;5077668;28;21136;-75
2022/03/07 06:09:16;;;;;;;6.10;5.50;;;4.50;1.00;;;;;;5074236;28;20454;-76
2022/03/07 06:11:44;;;;;;;9.53;5.80;;;4.10;1.00;;;;;;5076475;28;20458;-76
2022/03/07 06:14:12;;;;;;;8.38;5.25;;;4.40;1.00;;;;;;5082492;28;20466;-75
2022/03/07 06:16:41;;;;;;;7.97;6.53;;;4.40;1.00;;;;;;5077228;28;20220;-74
2022/03/07 06:19:09;;;;;;;7.47;6.45;;;4.60;1.00;;;;;;5080347;28;20216;-74
2022/03/07 06:21:39;;;;;;;14.48;6.50;;;4.40;1.00;;;;;;5079327;28;20223;-76
2022/03/07 06:24:07;;;;;;;7.28;5.15;;;4.50;1.00;;;;;;5076848;28;20215;-75
2022/03/07 06:26:35;;;;;;;8.27;6.05;;;4.30;1.00;;;;;;5078400;28;20286;-74
2022/03/07 06:29:05;;;;;;;8.25;5.25;;;4.40;1.00;;;;;;5083237;28;20202;-76
2022/03/07 06:31:34;;;;;;;7.90;5.87;;;4.40;1.00;;;;;;5082257;28;20195;-77
2022/03/07 06:34:03;;;;;;;6.00;5.40;;;4.40;1.00;;;;;;5087330;28;20574;-75
2022/03/07 06:36:31;;;;;;;7.97;5.90;;;4.60;1.00;;;;;;5073117;28;20939;-75
2022/03/07 06:39:00;;;;;;;7.75;5.93;;;4.40;1.00;;;;;;5090101;28;20453;-75
2022/03/07 06:41:29;;;;;;;10.55;5.90;;;4.40;1.00;;;;;;5075945;28;20204;-75
2022/03/07 06:44:00;;;;;;;6.40;5.80;;;4.40;1.00;;;;;;5074566;28;20211;-75
2022/03/07 06:46:29;;;;;;;6.43;5.78;;;4.30;1.00;;;;;;5079044;28;20301;-75
2022/03/07 06:48:58;;;;;;;5.77;4.97;;;4.30;1.00;;;;;;5078591;28;20201;-75
2022/03/07 06:51:26;;;;;;;5.80;4.90;;;4.40;1.00;;;;;;5080341;28;20871;-75
2022/03/07 06:53:54;;;;;;;6.53;5.40;;;4.60;1.00;;;;;;5077215;28;20215;-76
2022/03/07 06:56:24;;;;;;;7.82;5.25;;;4.60;1.00;;;;;;5079446;28;20466;-75
2022/03/07 06:58:52;;;;;;;7.22;5.15;;;4.70;1.00;;;;;;5072977;28;20204;-74
2022/03/07 07:01:20;;;;;;;9.27;5.22;;;4.80;1.00;;;;;;5073831;28;20194;-74
2022/03/07 07:03:48;;;;;;;6.32;4.88;;;4.90;1.00;;;;;;5074443;28;20193;-75
2022/03/07 07:06:17;;;;;;;6.78;4.82;;;4.90;1.00;;;;;;5079297;28;20271;-75
2022/03/07 07:08:45;;;;;;;5.07;4.57;;;4.90;1.00;;;;;;5074439;28;20733;-77
2022/03/07 07:11:13;;;;;;;8.88;4.97;;;5.00;1.00;;;;;;5073335;28;20253;-74
2022/03/07 07:13:42;;;;;;;5.18;4.20;;;4.90;1.00;;;;;;5076091;28;20281;-75
2022/03/07 07:16:11;;;;;;;8.35;5.53;;;5.00;1.00;;;;;;5071839;28;20799;-75
2022/03/07 07:18:39;;;;;;;6.00;5.40;;;5.00;1.00;;;;;;5081813;28;20203;-75
2022/03/07 07:21:07;;;;;;;8.20;5.50;;;5.00;1.00;;;;;;5077695;28;20233;-74
2022/03/07 07:23:36;;;;;;;5.82;4.85;;;5.10;1.00;;;;;;5072462;28;20856;-76
2022/03/07 07:26:05;;;;;;;8.48;5.72;;;5.20;1.00;;;;;;5072502;28;20922;-74
2022/03/07 07:28:34;;;;;;;6.40;4.10;;;5.30;1.00;;;;;;5073043;28;20207;-75
2022/03/07 07:31:04;;;;;;;6.50;5.35;;;5.20;1.00;;;;;;5072807;28;20536;-75
2022/03/07 07:33:32;;;;;;;7.13;4.82;;;5.30;1.00;;;;;;5075729;28;20199;-75
2022/03/07 07:36:00;;;;;;;8.70;5.00;;;5.30;1.00;;;;;;5078533;28;20231;-75
2022/03/07 07:38:29;;;;;;;6.00;5.43;;;5.20;1.00;;;;;;5071244;28;20207;-75
2022/03/07 07:40:57;;;;;;;6.82;5.47;;;5.30;1.00;;;;;;5073949;28;20199;-77
2022/03/07 07:43:25;;;;;;;7.90;5.77;;;5.20;1.00;;;;;;5074103;28;20211;-75
2022/03/07 07:45:53;;;;;;;4.70;4.30;;;5.30;1.00;;;;;;5074159;28;20463;-75
2022/03/07 07:48:22;;;;;;;5.00;4.50;;;5.50;1.00;;;;;;5075571;28;20568;-76
2022/03/07 07:50:51;;;;;;;7.03;4.67;;;5.60;1.00;;;;;;5072430;28;20446;-74
2022/03/07 07:53:19;;;;;;;6.13;4.80;;;6.10;1.00;;;;;;5076334;28;20894;-75
2022/03/07 07:55:47;;;;;;;7.93;4.65;;;5.90;1.00;;;;;;5073698;28;20488;-75
2022/03/07 07:58:15;;;;;;;8.33;5.80;;;5.90;1.00;;;;;;5077705;28;20223;-74
2022/03/07 08:00:43;;;;;;;7.32;5.57;;;6.10;1.00;;;;;;5077886;28;20483;-74
2022/03/07 08:03:13;;;;;;;7.67;5.67;;;5.90;1.00;;;;;;5075478;28;20888;-75
2022/03/07 08:05:45;;;;;;;5.63;3.90;;;6.00;1.00;;;;;;5074434;28;20506;-75
2022/03/07 08:08:13;;;;;;;5.60;4.30;;;6.20;1.00;;;;;;5072101;28;21336;-74
2022/03/07 08:10:42;;;;;;;7.53;5.20;;;6.60;1.00;;;;;;5074602;28;20450;-75
2022/03/07 08:13:11;;;;;;;6.37;5.27;;;6.70;1.00;;;;;;5067139;28;20449;-75
2022/03/07 08:15:40;;;;;;;7.70;5.30;;;6.60;1.00;;;;;;5078903;28;20954;-75
2022/03/07 08:18:09;;;;;;;6.60;4.70;;;6.80;1.00;;;;;;5080778;28;20446;-75
2022/03/07 08:20:38;;;;;;;8.17;6.50;;;7.00;1.00;;;;;;5072004;28;20474;-75
2022/03/07 08:23:08;;;;;;;5.37;4.73;;;7.30;1.00;;;;;;5073643;28;20458;-76
2022/03/07 08:25:36;;;;;;;6.73;5.17;;;7.20;1.00;;;;;;5074376;28;20462;-75
2022/03/07 08:28:05;;;;;;;6.67;5.47;;;7.40;1.00;;;;;;5076348;28;20462;-76
2022/03/07 08:30:34;;;;;;;6.73;5.67;;;7.60;1.00;;;;;;5070060;28;20462;-75
2022/03/07 08:33:02;;;;;;;5.70;5.20;;;7.80;1.00;;;;;;5068431;28;20538;-75
2022/03/07 08:35:31;;;;;;;6.30;4.83;;;8.00;1.00;;;;;;5070181;28;20485;-76
2022/03/07 08:37:59;;;;;;;7.90;5.87;;;8.00;1.00;;;;;;5072751;28;21261;-75
2022/03/07 08:40:29;;;;;;;7.07;5.13;;;8.10;1.00;;;;;;5073598;28;20535;-76
2022/03/07 08:42:57;;;;;;;6.30;5.63;;;8.10;1.00;;;;;;5074710;28;20443;-75
2022/03/07 08:45:26;;;;;;;7.90;6.00;;;8.00;1.00;;;;;;5075441;28;20440;-74
2022/03/07 08:48:14;;;;;;;9.52;6.13;;;8.00;1.00;;;;;;5073228;28;20444;-75
2022/03/07 08:50:43;;;;;;;7.37;5.17;;;8.10;1.00;;;;;;5079081;28;20195;-75
2022/03/07 08:53:11;;;;;;;7.10;5.93;;;8.00;1.00;;;;;;5080962;28;20490;-73
2022/03/07 08:55:40;;;;;;;5.50;5.00;;;8.00;1.00;;;;;;5074627;28;20479;-76
2022/03/07 08:58:14;;;;;;;5.77;5.27;;;8.20;1.00;;;;;;5079710;28;20551;-75
2022/03/07 09:00:42;;;;;;;6.07;5.37;;;8.40;1.00;;;;;;5075428;28;20463;-75
2022/03/07 09:03:10;;;;;;;7.57;5.67;;;8.50;1.00;;;;;;5077960;28;20488;-76
2022/03/07 09:05:39;;;;;;;7.17;6.30;;;8.80;1.00;;;;;;5078706;28;20489;-76
2022/03/07 09:08:07;;;;;;;9.23;5.83;;;8.90;1.00;;;;;;5076178;28;20920;-75
2022/03/07 09:10:35;;;;;;;6.27;5.67;;;9.10;1.00;;;;;;5078349;28;20479;-75
2022/03/07 09:13:05;;;;;;;6.70;5.80;;;9.30;1.00;;;;;;5076622;28;20467;-76
2022/03/07 09:15:33;;;;;;;7.67;6.33;;;9.60;1.00;;;;;;5071497;28;20556;-76
2022/03/07 09:18:01;;;;;;;6.50;5.60;;;9.60;1.00;;;;;;5077365;28;20886;-75
2022/03/07 09:20:30;;;;;;;8.33;6.03;;;9.70;1.00;;;;;;5073533;28;20476;-76
2022/03/07 09:22:58;;;;;;;6.60;5.57;;;9.60;1.00;;;;;;5079880;28;20447;-75
2022/03/07 09:25:26;;;;;;;6.73;5.90;;;9.70;1.00;;;;;;5078153;28;20540;-76
2022/03/07 09:27:54;;;;;;;5.80;5.10;;;9.60;1.00;;;;;;5074456;28;20481;-77
2022/03/07 09:30:24;;;;;;;6.70;5.13;;;9.70;1.00;;;;;;5073275;28;20461;-76
2022/03/07 09:32:54;;;;;;;6.10;5.50;;;10.20;1.00;;;;;;5075520;28;20455;-76
2022/03/07 09:35:23;;;;;;;6.43;5.83;;;10.30;1.00;;;;;;5076007;28;20482;-78
2022/03/07 09:37:51;;;;;;;6.27;5.67;;;10.40;1.00;;;;;;5072928;28;20470;-76
2022/03/07 09:40:19;;;;;;;7.97;6.03;;;10.60;1.00;;;;;;5074089;28;20447;-76
2022/03/07 09:42:47;;;;;;;6.20;5.60;;;11.10;1.00;;;;;;5073855;28;20456;-76
2022/03/07 09:45:15;;;;;;;6.47;5.87;;;10.90;1.00;;;;;;5073680;28;20456;-76
2022/03/07 09:47:48;;;;;;;7.33;5.97;;;11.10;1.00;;;;;;5079207;28;20507;-75
2022/03/07 09:50:16;;;;;;;7.30;6.60;;;11.50;1.00;;;;;;5072495;28;20452;-76
2022/03/07 09:52:45;;;;;;;7.50;6.50;;;11.90;1.00;;;;;;5072519;28;20486;-76
2022/03/07 09:55:16;;;;;;;6.80;6.13;;;12.10;1.00;;;;;;5087004;28;20496;-76
2022/03/07 09:57:45;;;;;;;7.80;6.07;;;12.20;1.00;;;;;;5074285;28;20547;-76
2022/03/07 10:00:15;;;;;;;6.53;5.90;;;12.20;1.00;;;;;;5073484;28;20442;-76
2022/03/07 10:02:54;;;;;;;7.67;6.90;;;12.30;1.00;;;;;;5074444;28;20472;-76
2022/03/07 10:05:26;;;;;;;7.80;6.70;;;12.60;1.00;;;;;;5082304;28;21034;-76
2022/03/07 10:07:55;;;;;;;7.47;6.67;;;12.60;1.00;;;;;;5075250;28;20496;-76
2022/03/07 10:10:28;;;;;;;8.80;6.90;;;12.50;1.00;;;;;;5079011;28;20453;-76
2022/03/07 10:12:56;;;;;;;7.53;6.60;;;12.50;1.00;;;;;;5075050;28;20460;-76
2022/03/07 10:15:24;;;;;;;7.90;7.10;;;12.50;1.00;;;;;;5072645;28;21019;-76
2022/03/07 10:17:55;;;;;;;6.07;5.33;;;12.20;1.00;;;;;;5078007;28;20471;-76
2022/03/07 10:20:25;;;;;;;9.53;7.17;;;12.00;1.00;;;;;;5075584;28;20488;-76
2022/03/07 10:22:56;;;;;;;7.43;6.70;;;11.90;1.00;;;;;;5071767;28;20505;-76
2022/03/07 10:25:26;;;;;;;7.27;6.27;;;11.80;1.00;;;;;;5073538;28;20452;-76
2022/03/07 10:27:55;;;;;;;7.20;5.73;;;12.00;1.00;;;;;;5074738;28;20477;-77
2022/03/07 10:30:25;;;;;;;7.47;5.60;;;11.80;1.00;;;;;;5071343;28;20446;-77
2022/03/07 10:32:56;;;;;;;8.60;7.00;;;12.00;1.00;;;;;;5073017;28;20463;-77
2022/03/07 10:35:28;;;;;;;8.07;6.17;;;12.10;1.00;;;;;;5072741;28;20480;-77
2022/03/07 10:37:58;;;;;;;9.53;6.00;;;12.10;1.00;;;;;;5070671;28;22981;-77
2022/03/07 10:40:28;;;;;;;7.53;6.83;;;12.10;1.00;;;;;;5078847;28;20453;-77
2022/03/07 10:43:00;;;;;;;7.33;6.57;;;12.10;1.00;;;;;;5077075;28;20470;-77
2022/03/07 10:45:30;;;;;;;7.03;5.97;;;11.80;1.00;;;;;;5074613;28;20452;-77
2022/03/07 10:48:03;;;;;;;8.37;7.17;;;11.50;1.00;;;;;;5077769;28;20591;-76
2022/03/07 10:50:32;;;;;;;9.67;7.07;;;11.40;1.00;;;;;;5073817;28;20526;-78
2022/03/07 10:53:02;;;;;;;8.77;6.77;;;11.10;1.00;;;;;;5072655;28;20456;-77
2022/03/07 10:55:32;;;;;;;7.20;6.33;;;10.80;1.00;;;;;;5071372;28;20481;-77
2022/03/07 10:58:09;;;;;;;7.67;6.50;;;10.70;1.00;;;;;;5077440;28;20509;-78
2022/03/07 11:00:49;;;;;;;8.63;5.60;;;10.30;1.00;;;;;;5071087;28;20461;-77
2022/03/07 11:03:22;;;;;;;6.97;6.27;;;10.20;1.00;;;;;;5071471;28;20465;-77
2022/03/07 11:05:52;;;;;;;8.70;7.37;;;9.80;1.00;;;;;;5076737;28;20543;-76
2022/03/07 11:08:21;;;;;;;7.00;6.30;;;9.60;1.00;;;;;;5074195;28;20494;-76
2022/03/07 11:10:52;;;;;;;9.30;6.03;;;9.50;1.00;;;;;;5072279;28;20987;-76
2022/03/07 11:13:25;;;;;;;7.63;6.03;;;9.70;1.00;;;;;;5075355;28;20473;-77
2022/03/07 11:15:56;;;;;;;10.70;7.10;;;9.60;1.00;;;;;;5070370;28;20528;-77
2022/03/07 11:18:29;;;;;;;7.93;6.40;;;9.50;1.00;;;;;;5071046;28;20545;-77
2022/03/07 11:20:59;;;;;;;8.23;5.90;;;9.40;1.00;;;;;;5073394;28;20458;-78
2022/03/07 11:23:27;;;;;;;7.10;6.40;;;9.30;1.00;;;;;;5083005;28;20529;-77
2022/03/07 11:25:58;;;;;;;9.43;6.47;;;9.20;1.00;;;;;;5076828;28;20480;-77
2022/03/07 11:28:29;;;;;;;6.53;5.53;;;9.30;1.00;;;;;;5073123;28;20979;-77
2022/03/07 11:30:57;;;;;;;8.23;6.47;;;9.20;1.00;;;;;;5076750;28;20534;-77
2022/03/07 11:33:37;;;;;;;8.00;6.83;;;9.20;1.00;;;;;;5077654;28;20457;-77
2022/03/07 11:36:15;;;;;;;7.87;6.63;;;9.10;1.00;;;;;;5079983;28;20468;-78
2022/03/07 11:38:51;;;;;;;9.10;7.47;;;9.10;1.00;;;;;;5068945;28;20466;-77
2022/03/07 11:41:26;;;;;;;8.97;7.17;;;9.30;1.00;;;;;;5072918;28;20461;-78
2022/03/07 11:43:56;;;;;;;9.40;6.07;;;9.80;1.00;;;;;;5079569;28;20465;-77
2022/03/07 11:46:28;;;;;;;8.20;6.20;;;9.80;1.00;;;;;;5071717;28;20904;-78
2022/03/07 11:48:58;;;;;;;7.53;5.90;;;9.80;1.00;;;;;;5072077;28;20447;-79
2022/03/07 11:51:28;;;;;;;6.90;6.20;;;9.70;1.00;;;;;;5081119;28;20545;-79
2022/03/07 11:53:58;;;;;;;6.23;5.50;;;9.70;1.00;;;;;;5078441;28;20442;-77
2022/03/07 11:56:29;;;;;;;8.63;6.00;;;9.60;1.00;;;;;;5082811;28;21000;-74
2022/03/07 11:58:58;;;;;;;7.03;6.30;;;9.60;1.00;;;;;;5075090;28;21009;-75
2022/03/07 12:01:30;;;;;;;8.50;5.80;;;9.70;1.00;;;;;;5081253;28;20468;-77
2022/03/07 12:04:10;;;;;;;8.73;6.53;;;9.70;1.00;;;;;;5071290;28;20461;-78
2022/03/07 12:06:45;;;;;;;9.17;7.07;;;9.90;1.00;;;;;;5072381;28;20551;-77
2022/03/07 12:09:24;;;;;;;7.90;6.43;;;10.00;1.00;;;;;;5078602;28;20534;-78
2022/03/07 12:12:00;;;;;;;9.83;6.50;;;10.10;1.00;;;;;;5078187;28;20455;-78
2022/03/07 12:14:30;;;;;;;9.00;7.03;;;10.20;1.00;;;;;;5079932;28;20534;-77
2022/03/07 12:17:01;;;;;;;9.63;6.40;;;10.50;1.00;;;;;;5080650;28;20482;-77
2022/03/07 12:19:31;;;;;;;10.37;7.37;;;10.40;1.00;;;;;;5077194;28;20492;-75
2022/03/07 12:22:10;;;;;;;7.70;6.03;;;10.50;1.00;;;;;;5091971;28;20449;-77
2022/03/07 12:24:39;;;;;;;8.57;6.33;;;10.50;1.00;;;;;;5076446;28;21320;-78
2022/03/07 12:27:08;;;;;;;9.03;6.60;;;10.40;1.00;;;;;;5078243;28;20476;-74
2022/03/07 12:29:41;;;;;;;11.43;7.03;;;10.30;1.00;;;;;;5079765;28;20491;-75
2022/03/07 12:32:10;;;;;;;8.80;7.35;;;10.30;1.00;;;;;;5075903;28;20484;-77
2022/03/07 12:34:41;;;;;;;7.47;6.70;;;10.40;1.00;;;;;;5074249;28;20455;-76
2022/03/07 12:37:11;;;;;;;9.83;7.07;;;10.50;1.00;;;;;;5074293;28;20573;-76
2022/03/07 12:39:45;;;;;;;6.43;5.77;;;10.60;1.00;;;;;;5073460;28;20469;-77
2022/03/07 12:42:14;;;;;;;7.80;7.00;;;10.50;1.00;;;;;;5076128;28;21016;-76
2022/03/07 12:44:43;;;;;;;7.43;6.50;;;10.50;1.00;;;;;;5073371;28;20466;-76
2022/03/07 12:47:12;;;;;;;6.93;5.87;;;10.50;1.00;;;;;;5077847;28;20469;-77
2022/03/07 12:49:43;;;;;;;7.60;6.70;;;10.50;1.00;;;;;;5076231;28;20456;-76
2022/03/07 12:52:23;;;;;;;7.77;6.80;;;10.40;1.00;;;;;;5075451;28;20464;-76
2022/03/07 12:54:51;;;;;;;8.40;6.57;;;10.30;1.00;;;;;;5075735;28;20452;-78
2022/03/07 12:57:20;;;;;;;7.80;6.47;;;10.30;1.00;;;;;;5073745;28;20473;-77
2022/03/07 12:59:50;;;;;;;7.63;5.93;;;10.30;1.00;;;;;;5076155;28;20479;-77
2022/03/07 13:02:18;;;;;;;7.80;7.00;;;10.20;1.00;;;;;;5077689;28;20446;-77
2022/03/07 13:04:54;;;;;;;9.57;7.27;;;10.20;1.00;;;;;;5081050;28;20457;-78
2022/03/07 13:07:25;;;;;;;8.37;6.20;;;10.30;1.00;;;;;;5081021;28;21075;-78
2022/03/07 13:09:54;;;;;;;7.70;6.40;;;10.30;1.00;;;;;;5076152;28;20471;-77
2022/03/07 13:12:22;;;;;;;7.47;5.80;;;10.40;1.00;;;;;;5081363;28;20466;-77
2022/03/07 13:14:52;;;;;;;6.50;5.90;;;10.40;1.00;;;;;;5076309;28;21145;-77
2022/03/07 13:17:21;;;;;;;7.47;6.50;;;10.60;1.00;;;;;;5072177;28;20466;-77